sensor_id;sensor_type;location;lat;lon;timestamp;P1;durP1;ratioP1;P2;durP2;ratioP2
4696;SDS011;2362;50.780;0.292;2023-04-01T00:00:49;11.15;;;2.65;;
4696;SDS011;2362;50.780;0.292;2023-04-01T00:03:42;12.55;;;2.97;;
4696;SDS011;2362;50.780;0.292;2023-04-01T00:06:09;16.25;;;2.88;;
4696;SDS011;2362;50.780;0.292;2023-04-01T00:08:40;21.80;;;3.50;;
4696;SDS011;2362;50.780;0.292;2023-04-01T00:11:06;8.95;;;2.72;;
4696;SDS011;2362;50.780;0.292;2023-04-01T00:13:31;12.10;;;2.88;;
4696;SDS011;2362;50.780;0.292;2023-04-01T00:15:57;14.35;;;3.30;;
4696;SDS011;2362;50.780;0.292;2023-04-01T00:18:23;12.68;;;3.03;;
4696;SDS011;2362;50.780;0.292;2023-04-01T00:20:50;11.32;;;3.00;;
4696;SDS011;2362;50.780;0.292;2023-04-01T00:23:17;14.18;;;3.08;;
4696;SDS011;2362;50.780;0.292;2023-04-01T00:25:43;17.05;;;2.78;;
4696;SDS011;2362;50.780;0.292;2023-04-01T00:28:11;24.58;;;4.00;;
4696;SDS011;2362;50.780;0.292;2023-04-01T00:30:37;16.40;;;4.38;;
4696;SDS011;2362;50.780;0.292;2023-04-01T00:33:03;17.70;;;4.03;;
4696;SDS011;2362;50.780;0.292;2023-04-01T00:35:30;20.60;;;4.07;;
4696;SDS011;2362;50.780;0.292;2023-04-01T00:37:57;17.95;;;3.95;;
4696;SDS011;2362;50.780;0.292;2023-04-01T00:40:26;26.30;;;3.92;;
4696;SDS011;2362;50.780;0.292;2023-04-01T00:42:52;21.20;;;3.78;;
4696;SDS011;2362;50.780;0.292;2023-04-01T00:45:37;23.15;;;4.28;;
4696;SDS011;2362;50.780;0.292;2023-04-01T00:48:15;15.68;;;3.75;;
4696;SDS011;2362;50.780;0.292;2023-04-01T00:50:44;28.83;;;4.07;;
4696;SDS011;2362;50.780;0.292;2023-04-01T00:53:16;18.05;;;3.45;;
4696;SDS011;2362;50.780;0.292;2023-04-01T00:55:46;22.60;;;3.88;;
4696;SDS011;2362;50.780;0.292;2023-04-01T00:58:17;21.50;;;4.50;;
4696;SDS011;2362;50.780;0.292;2023-04-01T01:00:46;17.88;;;4.13;;
4696;SDS011;2362;50.780;0.292;2023-04-01T01:03:39;15.45;;;3.45;;
4696;SDS011;2362;50.780;0.292;2023-04-01T01:06:11;14.38;;;3.70;;
4696;SDS011;2362;50.780;0.292;2023-04-01T01:11:26;20.85;;;4.47;;
4696;SDS011;2362;50.780;0.292;2023-04-01T01:14:21;18.63;;;3.95;;
4696;SDS011;2362;50.780;0.292;2023-04-01T01:17:06;21.75;;;4.15;;
4696;SDS011;2362;50.780;0.292;2023-04-01T01:34:30;26.55;;;3.80;;
4696;SDS011;2362;50.780;0.292;2023-04-01T01:37:23;19.77;;;3.50;;
4696;SDS011;2362;50.780;0.292;2023-04-01T01:39:56;30.35;;;4.03;;
4696;SDS011;2362;50.780;0.292;2023-04-01T01:42:30;18.15;;;3.33;;
4696;SDS011;2362;50.780;0.292;2023-04-01T01:44:59;18.40;;;4.05;;
4696;SDS011;2362;50.780;0.292;2023-04-01T01:47:27;15.82;;;3.97;;
4696;SDS011;2362;50.780;0.292;2023-04-01T01:49:54;15.27;;;3.10;;
4696;SDS011;2362;50.780;0.292;2023-04-01T01:52:24;15.50;;;3.60;;
4696;SDS011;2362;50.780;0.292;2023-04-01T01:54:53;16.15;;;4.28;;
4696;SDS011;2362;50.780;0.292;2023-04-01T01:57:25;28.48;;;4.70;;
4696;SDS011;2362;50.780;0.292;2023-04-01T01:59:56;18.73;;;3.53;;
4696;SDS011;2362;50.780;0.292;2023-04-01T02:02:26;13.95;;;3.42;;
4696;SDS011;2362;50.780;0.292;2023-04-01T02:04:56;10.32;;;2.90;;
4696;SDS011;2362;50.780;0.292;2023-04-01T02:07:28;17.00;;;4.05;;
4696;SDS011;2362;50.780;0.292;2023-04-01T02:09:58;7.10;;;3.13;;
4696;SDS011;2362;50.780;0.292;2023-04-01T02:12:24;10.88;;;2.60;;
4696;SDS011;2362;50.780;0.292;2023-04-01T02:17:26;8.18;;;2.10;;
4696;SDS011;2362;50.780;0.292;2023-04-01T02:20:05;10.23;;;2.45;;
4696;SDS011;2362;50.780;0.292;2023-04-01T02:22:39;10.77;;;2.65;;
4696;SDS011;2362;50.780;0.292;2023-04-01T02:25:10;12.95;;;2.70;;
4696;SDS011;2362;50.780;0.292;2023-04-01T02:27:40;11.23;;;2.53;;
4696;SDS011;2362;50.780;0.292;2023-04-01T02:30:08;8.95;;;2.15;;
4696;SDS011;2362;50.780;0.292;2023-04-01T02:32:34;7.10;;;2.38;;
4696;SDS011;2362;50.780;0.292;2023-04-01T02:35:04;9.75;;;2.67;;
4696;SDS011;2362;50.780;0.292;2023-04-01T02:37:38;8.98;;;2.80;;
4696;SDS011;2362;50.780;0.292;2023-04-01T02:40:09;9.70;;;3.10;;
4696;SDS011;2362;50.780;0.292;2023-04-01T02:42:38;10.48;;;2.90;;
4696;SDS011;2362;50.780;0.292;2023-04-01T02:45:04;11.07;;;2.75;;
4696;SDS011;2362;50.780;0.292;2023-04-01T02:47:30;4.95;;;2.30;;
4696;SDS011;2362;50.780;0.292;2023-04-01T02:49:56;7.43;;;2.60;;
4696;SDS011;2362;50.780;0.292;2023-04-01T02:52:32;9.48;;;2.58;;
4696;SDS011;2362;50.780;0.292;2023-04-01T02:54:58;7.78;;;2.80;;
4696;SDS011;2362;50.780;0.292;2023-04-01T02:57:24;11.50;;;2.80;;
4696;SDS011;2362;50.780;0.292;2023-04-01T02:59:50;6.60;;;2.50;;
4696;SDS011;2362;50.780;0.292;2023-04-01T03:02:16;9.48;;;2.67;;
4696;SDS011;2362;50.780;0.292;2023-04-01T03:04:42;10.60;;;2.60;;
4696;SDS011;2362;50.780;0.292;2023-04-01T03:07:08;7.70;;;2.35;;
4696;SDS011;2362;50.780;0.292;2023-04-01T03:09:36;7.07;;;2.00;;
4696;SDS011;2362;50.780;0.292;2023-04-01T03:12:03;8.82;;;2.63;;
4696;SDS011;2362;50.780;0.292;2023-04-01T03:14:29;12.10;;;2.45;;
4696;SDS011;2362;50.780;0.292;2023-04-01T03:16:54;10.48;;;2.38;;
4696;SDS011;2362;50.780;0.292;2023-04-01T03:19:20;6.32;;;2.65;;
4696;SDS011;2362;50.780;0.292;2023-04-01T03:21:46;8.90;;;2.17;;
4696;SDS011;2362;50.780;0.292;2023-04-01T03:24:11;8.35;;;2.35;;
4696;SDS011;2362;50.780;0.292;2023-04-01T03:26:37;10.23;;;2.30;;
4696;SDS011;2362;50.780;0.292;2023-04-01T03:29:03;8.77;;;2.30;;
4696;SDS011;2362;50.780;0.292;2023-04-01T03:31:29;4.90;;;1.98;;
4696;SDS011;2362;50.780;0.292;2023-04-01T03:33:55;6.00;;;1.50;;
4696;SDS011;2362;50.780;0.292;2023-04-01T03:36:21;9.80;;;1.95;;
4696;SDS011;2362;50.780;0.292;2023-04-01T03:38:47;6.00;;;1.88;;
4696;SDS011;2362;50.780;0.292;2023-04-01T03:41:14;11.50;;;2.00;;
4696;SDS011;2362;50.780;0.292;2023-04-01T03:43:41;6.38;;;1.98;;
4696;SDS011;2362;50.780;0.292;2023-04-01T03:46:07;7.55;;;1.65;;
4696;SDS011;2362;50.780;0.292;2023-04-01T03:48:32;12.45;;;2.10;;
4696;SDS011;2362;50.780;0.292;2023-04-01T03:50:58;8.57;;;1.85;;
4696;SDS011;2362;50.780;0.292;2023-04-01T03:53:24;9.85;;;2.00;;
4696;SDS011;2362;50.780;0.292;2023-04-01T03:55:49;10.63;;;2.33;;
4696;SDS011;2362;50.780;0.292;2023-04-01T03:58:16;10.80;;;2.88;;
4696;SDS011;2362;50.780;0.292;2023-04-01T04:00:43;8.18;;;2.22;;
4696;SDS011;2362;50.780;0.292;2023-04-01T04:03:08;9.65;;;2.38;;
4696;SDS011;2362;50.780;0.292;2023-04-01T04:05:34;13.43;;;3.90;;
4696;SDS011;2362;50.780;0.292;2023-04-01T04:08:00;13.05;;;3.67;;
4696;SDS011;2362;50.780;0.292;2023-04-01T04:10:26;15.30;;;2.67;;
4696;SDS011;2362;50.780;0.292;2023-04-01T04:13:18;12.43;;;3.28;;
4696;SDS011;2362;50.780;0.292;2023-04-01T04:15:45;12.95;;;2.72;;
4696;SDS011;2362;50.780;0.292;2023-04-01T04:18:10;15.32;;;2.78;;
4696;SDS011;2362;50.780;0.292;2023-04-01T04:20:36;18.92;;;3.00;;
4696;SDS011;2362;50.780;0.292;2023-04-01T04:23:02;16.27;;;3.33;;
4696;SDS011;2362;50.780;0.292;2023-04-01T04:25:27;17.65;;;3.22;;
4696;SDS011;2362;50.780;0.292;2023-04-01T04:27:53;12.77;;;2.53;;
4696;SDS011;2362;50.780;0.292;2023-04-01T04:30:19;14.93;;;3.30;;
4696;SDS011;2362;50.780;0.292;2023-04-01T04:32:44;12.07;;;2.80;;
4696;SDS011;2362;50.780;0.292;2023-04-01T04:35:10;18.02;;;2.45;;
4696;SDS011;2362;50.780;0.292;2023-04-01T04:37:36;21.90;;;3.17;;
4696;SDS011;2362;50.780;0.292;2023-04-01T04:40:01;6.88;;;2.47;;
4696;SDS011;2362;50.780;0.292;2023-04-01T04:42:27;14.18;;;3.45;;
4696;SDS011;2362;50.780;0.292;2023-04-01T04:44:53;18.38;;;3.28;;
4696;SDS011;2362;50.780;0.292;2023-04-01T04:47:43;10.50;;;3.17;;
4696;SDS011;2362;50.780;0.292;2023-04-01T04:50:35;11.85;;;3.75;;
4696;SDS011;2362;50.780;0.292;2023-04-01T04:53:25;10.02;;;3.50;;
4696;SDS011;2362;50.780;0.292;2023-04-01T04:56:20;16.90;;;3.75;;
4696;SDS011;2362;50.780;0.292;2023-04-01T04:58:46;21.70;;;4.18;;
4696;SDS011;2362;50.780;0.292;2023-04-01T05:01:13;18.45;;;3.70;;
4696;SDS011;2362;50.780;0.292;2023-04-01T05:03:41;22.13;;;3.50;;
4696;SDS011;2362;50.780;0.292;2023-04-01T05:06:08;21.13;;;5.30;;
4696;SDS011;2362;50.780;0.292;2023-04-01T05:08:34;17.00;;;3.92;;
4696;SDS011;2362;50.780;0.292;2023-04-01T05:11:01;14.68;;;3.40;;
4696;SDS011;2362;50.780;0.292;2023-04-01T05:13:27;19.27;;;3.45;;
4696;SDS011;2362;50.780;0.292;2023-04-01T05:15:54;18.02;;;3.13;;
4696;SDS011;2362;50.780;0.292;2023-04-01T05:18:20;12.90;;;3.65;;
4696;SDS011;2362;50.780;0.292;2023-04-01T05:20:52;22.98;;;4.05;;
4696;SDS011;2362;50.780;0.292;2023-04-01T05:23:18;9.70;;;2.72;;
4696;SDS011;2362;50.780;0.292;2023-04-01T05:25:46;14.30;;;3.40;;
4696;SDS011;2362;50.780;0.292;2023-04-01T05:28:12;16.95;;;3.83;;
4696;SDS011;2362;50.780;0.292;2023-04-01T05:30:42;14.23;;;3.58;;
4696;SDS011;2362;50.780;0.292;2023-04-01T05:33:08;13.40;;;2.72;;
4696;SDS011;2362;50.780;0.292;2023-04-01T05:35:35;8.77;;;2.10;;
4696;SDS011;2362;50.780;0.292;2023-04-01T05:38:01;18.70;;;3.03;;
4696;SDS011;2362;50.780;0.292;2023-04-01T05:40:27;16.17;;;2.67;;
4696;SDS011;2362;50.780;0.292;2023-04-01T05:42:53;13.65;;;3.20;;
4696;SDS011;2362;50.780;0.292;2023-04-01T05:45:19;17.17;;;3.15;;
4696;SDS011;2362;50.780;0.292;2023-04-01T05:47:44;10.75;;;3.03;;
4696;SDS011;2362;50.780;0.292;2023-04-01T05:50:10;8.57;;;2.97;;
4696;SDS011;2362;50.780;0.292;2023-04-01T05:52:36;7.72;;;2.40;;
4696;SDS011;2362;50.780;0.292;2023-04-01T05:55:03;4.05;;;1.70;;
4696;SDS011;2362;50.780;0.292;2023-04-01T05:57:29;6.35;;;1.85;;
4696;SDS011;2362;50.780;0.292;2023-04-01T05:59:55;7.93;;;2.00;;
4696;SDS011;2362;50.780;0.292;2023-04-01T06:02:24;8.02;;;1.67;;
4696;SDS011;2362;50.780;0.292;2023-04-01T06:04:50;4.25;;;1.80;;
4696;SDS011;2362;50.780;0.292;2023-04-01T06:07:27;3.22;;;1.55;;
4696;SDS011;2362;50.780;0.292;2023-04-01T06:09:53;2.70;;;1.75;;
4696;SDS011;2362;50.780;0.292;2023-04-01T06:26:12;3.25;;;2.25;;
4696;SDS011;2362;50.780;0.292;2023-04-01T06:43:13;9.57;;;2.60;;
4696;SDS011;2362;50.780;0.292;2023-04-01T06:49:07;4.43;;;2.92;;
4696;SDS011;2362;50.780;0.292;2023-04-01T06:52:31;4.40;;;2.80;;
4696;SDS011;2362;50.780;0.292;2023-04-01T06:54:53;5.72;;;3.05;;
4696;SDS011;2362;50.780;0.292;2023-04-01T06:57:37;6.50;;;2.75;;
4696;SDS011;2362;50.780;0.292;2023-04-01T07:00:14;5.95;;;3.30;;
4696;SDS011;2362;50.780;0.292;2023-04-01T07:02:48;6.82;;;3.83;;
4696;SDS011;2362;50.780;0.292;2023-04-01T07:05:23;5.75;;;4.10;;
4696;SDS011;2362;50.780;0.292;2023-04-01T07:07:52;5.85;;;4.53;;
4696;SDS011;2362;50.780;0.292;2023-04-01T07:10:31;7.60;;;4.85;;
4696;SDS011;2362;50.780;0.292;2023-04-01T07:13:03;8.55;;;5.07;;
4696;SDS011;2362;50.780;0.292;2023-04-01T07:15:39;7.60;;;5.22;;
4696;SDS011;2362;50.780;0.292;2023-04-01T07:18:12;9.25;;;5.55;;
4696;SDS011;2362;50.780;0.292;2023-04-01T07:20:42;14.13;;;6.20;;
4696;SDS011;2362;50.780;0.292;2023-04-01T07:23:28;8.13;;;5.88;;
4696;SDS011;2362;50.780;0.292;2023-04-01T07:26:07;8.57;;;5.85;;
4696;SDS011;2362;50.780;0.292;2023-04-01T07:28:42;7.50;;;5.97;;
4696;SDS011;2362;50.780;0.292;2023-04-01T07:34:09;8.00;;;6.30;;
4696;SDS011;2362;50.780;0.292;2023-04-01T07:50:27;12.95;;;7.13;;
4696;SDS011;2362;50.780;0.292;2023-04-01T07:53:03;10.82;;;6.65;;
4696;SDS011;2362;50.780;0.292;2023-04-01T07:55:48;12.07;;;6.88;;
4696;SDS011;2362;50.780;0.292;2023-04-01T07:58:31;10.85;;;7.28;;
4696;SDS011;2362;50.780;0.292;2023-04-01T08:01:06;12.45;;;7.72;;
4696;SDS011;2362;50.780;0.292;2023-04-01T08:06:28;11.70;;;7.70;;
4696;SDS011;2362;50.780;0.292;2023-04-01T08:12:18;7.10;;;6.13;;
4696;SDS011;2362;50.780;0.292;2023-04-01T08:18:22;10.38;;;6.78;;
4696;SDS011;2362;50.780;0.292;2023-04-01T08:20:58;9.35;;;6.00;;
4696;SDS011;2362;50.780;0.292;2023-04-01T08:23:30;11.88;;;6.53;;
4696;SDS011;2362;50.780;0.292;2023-04-01T08:26:10;10.77;;;6.15;;
4696;SDS011;2362;50.780;0.292;2023-04-01T08:28:46;7.68;;;5.63;;
4696;SDS011;2362;50.780;0.292;2023-04-01T08:31:29;7.85;;;5.05;;
4696;SDS011;2362;50.780;0.292;2023-04-01T08:33:58;9.80;;;5.28;;
4696;SDS011;2362;50.780;0.292;2023-04-01T08:36:28;6.47;;;4.85;;
4696;SDS011;2362;50.780;0.292;2023-04-01T08:39:07;8.57;;;5.78;;
4696;SDS011;2362;50.780;0.292;2023-04-01T08:41:50;5.57;;;4.78;;
4696;SDS011;2362;50.780;0.292;2023-04-01T08:58:54;7.90;;;3.30;;
4696;SDS011;2362;50.780;0.292;2023-04-01T09:01:55;5.65;;;3.17;;
4696;SDS011;2362;50.780;0.292;2023-04-01T09:04:38;5.63;;;3.88;;
4696;SDS011;2362;50.780;0.292;2023-04-01T09:07:27;13.55;;;3.05;;
4696;SDS011;2362;50.780;0.292;2023-04-01T09:21:08;5.43;;;2.60;;
4696;SDS011;2362;50.780;0.292;2023-04-01T09:23:47;3.60;;;3.20;;
4696;SDS011;2362;50.780;0.292;2023-04-01T09:34:54;4.43;;;3.60;;
4696;SDS011;2362;50.780;0.292;2023-04-01T09:48:40;6.47;;;3.15;;
4696;SDS011;2362;50.780;0.292;2023-04-01T09:51:22;4.50;;;2.80;;
4696;SDS011;2362;50.780;0.292;2023-04-01T10:08:50;5.80;;;3.25;;
4696;SDS011;2362;50.780;0.292;2023-04-01T10:11:50;5.47;;;3.33;;
4696;SDS011;2362;50.780;0.292;2023-04-01T10:25:51;5.95;;;4.20;;
4696;SDS011;2362;50.780;0.292;2023-04-01T10:42:05;6.43;;;3.67;;
4696;SDS011;2362;50.780;0.292;2023-04-01T10:47:55;7.90;;;5.35;;
4696;SDS011;2362;50.780;0.292;2023-04-01T11:02:29;7.60;;;5.60;;
4696;SDS011;2362;50.780;0.292;2023-04-01T11:17:34;9.48;;;5.13;;
4696;SDS011;2362;50.780;0.292;2023-04-01T11:22:51;9.90;;;4.50;;
4696;SDS011;2362;50.780;0.292;2023-04-01T11:28:40;7.05;;;4.05;;
4696;SDS011;2362;50.780;0.292;2023-04-01T11:53:38;4.50;;;2.92;;
4696;SDS011;2362;50.780;0.292;2023-04-01T11:56:18;6.13;;;2.92;;
4696;SDS011;2362;50.780;0.292;2023-04-01T12:02:25;4.60;;;2.38;;
4696;SDS011;2362;50.780;0.292;2023-04-01T12:18:38;4.47;;;2.28;;
4696;SDS011;2362;50.780;0.292;2023-04-01T12:21:17;3.40;;;1.70;;
4696;SDS011;2362;50.780;0.292;2023-04-01T12:24:01;3.25;;;1.73;;
4696;SDS011;2362;50.780;0.292;2023-04-01T12:26:46;2.17;;;1.70;;
4696;SDS011;2362;50.780;0.292;2023-04-01T12:37:56;3.20;;;1.60;;
4696;SDS011;2362;50.780;0.292;2023-04-01T12:46:32;8.10;;;2.72;;
4696;SDS011;2362;50.780;0.292;2023-04-01T13:08:37;3.33;;;1.63;;
4696;SDS011;2362;50.780;0.292;2023-04-01T13:14:50;2.55;;;1.38;;
4696;SDS011;2362;50.780;0.292;2023-04-01T13:22:45;12.23;;;2.63;;
4696;SDS011;2362;50.780;0.292;2023-04-01T13:27:58;3.30;;;1.85;;
4696;SDS011;2362;50.780;0.292;2023-04-01T13:30:37;7.80;;;2.22;;
4696;SDS011;2362;50.780;0.292;2023-04-01T13:33:30;7.47;;;1.98;;
4696;SDS011;2362;50.780;0.292;2023-04-01T13:39:14;5.93;;;1.88;;
4696;SDS011;2362;50.780;0.292;2023-04-01T13:41:50;3.90;;;1.73;;
4696;SDS011;2362;50.780;0.292;2023-04-01T13:45:00;8.18;;;2.00;;
4696;SDS011;2362;50.780;0.292;2023-04-01T14:03:30;8.32;;;2.70;;
4696;SDS011;2362;50.780;0.292;2023-04-01T14:11:52;8.10;;;2.47;;
4696;SDS011;2362;50.780;0.292;2023-04-01T14:34:08;7.32;;;1.92;;
4696;SDS011;2362;50.780;0.292;2023-04-01T14:42:21;7.35;;;2.63;;
4696;SDS011;2362;50.780;0.292;2023-04-01T14:47:48;8.00;;;2.83;;
4696;SDS011;2362;50.780;0.292;2023-04-01T14:50:17;9.30;;;2.65;;
4696;SDS011;2362;50.780;0.292;2023-04-01T14:52:51;8.55;;;2.40;;
4696;SDS011;2362;50.780;0.292;2023-04-01T15:00:45;8.07;;;2.65;;
4696;SDS011;2362;50.780;0.292;2023-04-01T15:11:56;11.30;;;2.53;;
4696;SDS011;2362;50.780;0.292;2023-04-01T15:22:41;10.77;;;2.50;;
4696;SDS011;2362;50.780;0.292;2023-04-01T15:38:45;11.05;;;2.85;;
4696;SDS011;2362;50.780;0.292;2023-04-01T15:41:23;7.85;;;2.40;;
4696;SDS011;2362;50.780;0.292;2023-04-01T15:43:53;9.88;;;2.20;;
4696;SDS011;2362;50.780;0.292;2023-04-01T15:52:02;7.28;;;2.45;;
4696;SDS011;2362;50.780;0.292;2023-04-01T15:54:32;5.75;;;1.92;;
4696;SDS011;2362;50.780;0.292;2023-04-01T16:05:51;9.57;;;1.80;;
4696;SDS011;2362;50.780;0.292;2023-04-01T16:33:51;5.57;;;2.03;;
4696;SDS011;2362;50.780;0.292;2023-04-01T16:36:32;8.80;;;2.17;;
4696;SDS011;2362;50.780;0.292;2023-04-01T16:50:48;10.35;;;2.60;;
4696;SDS011;2362;50.780;0.292;2023-04-01T16:58:40;5.47;;;2.72;;
4696;SDS011;2362;50.780;0.292;2023-04-01T17:01:16;10.48;;;3.10;;
4696;SDS011;2362;50.780;0.292;2023-04-01T17:04:20;11.10;;;3.00;;
4696;SDS011;2362;50.780;0.292;2023-04-01T17:26:52;8.52;;;2.80;;
4696;SDS011;2362;50.780;0.292;2023-04-01T17:35:19;8.65;;;3.05;;
4696;SDS011;2362;50.780;0.292;2023-04-01T17:46:02;8.60;;;2.85;;
4696;SDS011;2362;50.780;0.292;2023-04-01T17:57:30;9.50;;;3.80;;
4696;SDS011;2362;50.780;0.292;2023-04-01T17:59:57;10.48;;;3.20;;
4696;SDS011;2362;50.780;0.292;2023-04-01T18:02:48;12.55;;;3.67;;
4696;SDS011;2362;50.780;0.292;2023-04-01T18:08:08;11.85;;;3.88;;
4696;SDS011;2362;50.780;0.292;2023-04-01T18:16:29;14.90;;;4.38;;
4696;SDS011;2362;50.780;0.292;2023-04-01T18:22:34;10.52;;;4.47;;
4696;SDS011;2362;50.780;0.292;2023-04-01T18:25:04;10.18;;;4.35;;
4696;SDS011;2362;50.780;0.292;2023-04-01T18:27:46;8.40;;;4.53;;
4696;SDS011;2362;50.780;0.292;2023-04-01T18:32:55;10.32;;;4.40;;
4696;SDS011;2362;50.780;0.292;2023-04-01T18:38:28;13.70;;;4.53;;
4696;SDS011;2362;50.780;0.292;2023-04-01T18:41:25;10.30;;;4.65;;
4696;SDS011;2362;50.780;0.292;2023-04-01T18:49:48;12.02;;;4.22;;
4696;SDS011;2362;50.780;0.292;2023-04-01T18:52:22;11.90;;;4.00;;
4696;SDS011;2362;50.780;0.292;2023-04-01T19:02:56;10.18;;;4.20;;
4696;SDS011;2362;50.780;0.292;2023-04-01T19:10:49;15.63;;;4.50;;
4696;SDS011;2362;50.780;0.292;2023-04-01T19:14:02;11.73;;;4.25;;
4696;SDS011;2362;50.780;0.292;2023-04-01T19:19:09;7.88;;;3.92;;
4696;SDS011;2362;50.780;0.292;2023-04-01T19:21:55;10.50;;;4.13;;
4696;SDS011;2362;50.780;0.292;2023-04-01T19:46:41;11.85;;;4.43;;
4696;SDS011;2362;50.780;0.292;2023-04-01T19:52:17;12.27;;;4.45;;
4696;SDS011;2362;50.780;0.292;2023-04-01T20:00:56;12.48;;;3.83;;
4696;SDS011;2362;50.780;0.292;2023-04-01T20:04:25;10.48;;;3.60;;
4696;SDS011;2362;50.780;0.292;2023-04-01T20:06:35;12.05;;;3.78;;
4696;SDS011;2362;50.780;0.292;2023-04-01T20:14:56;4.43;;;2.75;;
4696;SDS011;2362;50.780;0.292;2023-04-01T20:17:43;6.43;;;3.25;;
4696;SDS011;2362;50.780;0.292;2023-04-01T20:25:12;7.90;;;3.42;;
4696;SDS011;2362;50.780;0.292;2023-04-01T20:27:44;10.75;;;4.82;;
4696;SDS011;2362;50.780;0.292;2023-04-01T20:41:34;8.15;;;3.58;;
4696;SDS011;2362;50.780;0.292;2023-04-01T20:50:29;16.85;;;5.75;;
4696;SDS011;2362;50.780;0.292;2023-04-01T20:56:23;12.75;;;4.57;;
4696;SDS011;2362;50.780;0.292;2023-04-01T21:04:17;10.43;;;3.65;;
4696;SDS011;2362;50.780;0.292;2023-04-01T21:10:00;6.97;;;3.53;;
4696;SDS011;2362;50.780;0.292;2023-04-01T21:12:42;4.53;;;2.63;;
4696;SDS011;2362;50.780;0.292;2023-04-01T21:15:21;9.70;;;2.20;;
4696;SDS011;2362;50.780;0.292;2023-04-01T21:17:58;4.40;;;2.10;;
4696;SDS011;2362;50.780;0.292;2023-04-01T21:34:56;12.02;;;2.50;;
4696;SDS011;2362;50.780;0.292;2023-04-01T21:43:49;6.63;;;2.53;;
4696;SDS011;2362;50.780;0.292;2023-04-01T21:49:20;6.03;;;2.40;;
4696;SDS011;2362;50.780;0.292;2023-04-01T22:01:33;3.95;;;1.45;;
4696;SDS011;2362;50.780;0.292;2023-04-01T22:03:56;2.88;;;1.90;;
4696;SDS011;2362;50.780;0.292;2023-04-01T22:06:41;13.43;;;2.28;;
4696;SDS011;2362;50.780;0.292;2023-04-01T22:09:32;4.45;;;1.50;;
4696;SDS011;2362;50.780;0.292;2023-04-01T22:12:16;6.72;;;2.20;;
4696;SDS011;2362;50.780;0.292;2023-04-01T22:14:57;5.30;;;2.13;;
4696;SDS011;2362;50.780;0.292;2023-04-01T22:18:03;8.68;;;2.22;;
4696;SDS011;2362;50.780;0.292;2023-04-01T22:23:55;6.25;;;1.52;;
4696;SDS011;2362;50.780;0.292;2023-04-01T22:26:32;8.00;;;1.60;;
4696;SDS011;2362;50.780;0.292;2023-04-01T22:34:43;5.93;;;1.88;;
4696;SDS011;2362;50.780;0.292;2023-04-01T22:37:20;6.63;;;1.23;;
4696;SDS011;2362;50.780;0.292;2023-04-01T22:40:00;10.73;;;2.15;;
4696;SDS011;2362;50.780;0.292;2023-04-01T22:42:45;9.77;;;1.77;;
4696;SDS011;2362;50.780;0.292;2023-04-01T22:48:48;6.55;;;1.48;;
4696;SDS011;2362;50.780;0.292;2023-04-01T22:59:26;7.35;;;1.27;;
4696;SDS011;2362;50.780;0.292;2023-04-01T23:04:31;5.20;;;0.98;;
4696;SDS011;2362;50.780;0.292;2023-04-01T23:07:00;4.88;;;1.10;;
4696;SDS011;2362;50.780;0.292;2023-04-01T23:09:33;7.63;;;1.65;;
4696;SDS011;2362;50.780;0.292;2023-04-01T23:12:10;8.32;;;1.30;;
4696;SDS011;2362;50.780;0.292;2023-04-01T23:14:40;6.45;;;1.35;;
4696;SDS011;2362;50.780;0.292;2023-04-01T23:19:54;5.95;;;1.52;;
4696;SDS011;2362;50.780;0.292;2023-04-01T23:22:53;7.85;;;1.10;;
4696;SDS011;2362;50.780;0.292;2023-04-01T23:27:51;4.05;;;1.17;;
4696;SDS011;2362;50.780;0.292;2023-04-01T23:30:47;2.88;;;1.02;;
4696;SDS011;2362;50.780;0.292;2023-04-01T23:38:40;4.18;;;1.20;;
4696;SDS011;2362;50.780;0.292;2023-04-01T23:41:07;4.35;;;1.48;;
4696;SDS011;2362;50.780;0.292;2023-04-01T23:43:42;3.78;;;1.30;;
4696;SDS011;2362;50.780;0.292;2023-04-01T23:46:09;3.00;;;0.80;;
4696;SDS011;2362;50.780;0.292;2023-04-01T23:48:38;14.80;;;1.58;;
4696;SDS011;2362;50.780;0.292;2023-04-01T23:51:22;6.75;;;1.10;;
4696;SDS011;2362;50.780;0.292;2023-04-01T23:54:01;3.33;;;1.13;;
4696;SDS011;2362;50.780;0.292;2023-04-01T23:56:35;2.63;;;0.80;;
4696;SDS011;2362;50.780;0.292;2023-04-01T23:59:09;2.60;;;0.90;;
